Terminal Aerodrome Forecast
Issued by NWS Des Moines, IA

Current Version | Previous Version | Text Only | Print | Product List | Glossary On
Versions: 1 2 3 4 5 6 7 8 9 10 11 12 13 14 15 16 17 18 19 20 21 22 23 24 25 26 27 28 29 30
000
FTUS43 KDMX 301122
TAFALO
TAF
KALO 301122Z 3012/0112 10011KT P6SM OVC006
     FM301600 11011KT P6SM SCT009 BKN035 OVC090
     FM010300 12012KT P6SM BKN025 OVC100
     FM010900 13013KT 5SM -RA VCTS BKN023CB OVC060=

USA.gov is the U.S. government's official web portal to all federal, state and local government web resources and services.